sensor_id;sensor_type;location;lat;lon;timestamp;P1;durP1;ratioP1;P2;durP2;ratioP2
49566;SDS011;35472;50.514;30.448;2024-01-10T00:01:11;2.75;;;1.67;;
49566;SDS011;35472;50.514;30.448;2024-01-10T00:03:38;5.63;;;2.08;;
49566;SDS011;35472;50.514;30.448;2024-01-10T00:06:04;3.92;;;2.20;;
49566;SDS011;35472;50.514;30.448;2024-01-10T00:08:30;6.60;;;1.92;;
49566;SDS011;35472;50.514;30.448;2024-01-10T00:10:55;4.68;;;1.80;;
49566;SDS011;35472;50.514;30.448;2024-01-10T00:13:20;4.53;;;1.80;;
49566;SDS011;35472;50.514;30.448;2024-01-10T00:15:47;5.32;;;1.83;;
49566;SDS011;35472;50.514;30.448;2024-01-10T00:18:13;3.63;;;2.22;;
49566;SDS011;35472;50.514;30.448;2024-01-10T00:20:38;3.35;;;2.25;;
49566;SDS011;35472;50.514;30.448;2024-01-10T00:23:04;3.15;;;1.77;;
49566;SDS011;35472;50.514;30.448;2024-01-10T00:25:31;4.78;;;2.10;;
49566;SDS011;35472;50.514;30.448;2024-01-10T00:27:56;3.70;;;2.20;;
49566;SDS011;35472;50.514;30.448;2024-01-10T00:30:22;3.50;;;1.88;;
49566;SDS011;35472;50.514;30.448;2024-01-10T00:32:47;3.10;;;1.85;;
49566;SDS011;35472;50.514;30.448;2024-01-10T00:35:12;3.85;;;2.08;;
49566;SDS011;35472;50.514;30.448;2024-01-10T00:37:38;4.38;;;1.88;;
49566;SDS011;35472;50.514;30.448;2024-01-10T00:40:03;6.07;;;2.33;;
49566;SDS011;35472;50.514;30.448;2024-01-10T00:42:29;3.45;;;2.17;;
49566;SDS011;35472;50.514;30.448;2024-01-10T00:44:54;5.47;;;3.17;;
49566;SDS011;35472;50.514;30.448;2024-01-10T00:47:21;3.65;;;2.42;;
49566;SDS011;35472;50.514;30.448;2024-01-10T00:49:46;4.80;;;2.40;;
49566;SDS011;35472;50.514;30.448;2024-01-10T00:52:11;8.38;;;3.80;;
49566;SDS011;35472;50.514;30.448;2024-01-10T00:54:37;7.28;;;3.20;;
49566;SDS011;35472;50.514;30.448;2024-01-10T00:57:02;3.78;;;2.30;;
49566;SDS011;35472;50.514;30.448;2024-01-10T00:59:28;7.07;;;4.18;;
49566;SDS011;35472;50.514;30.448;2024-01-10T01:01:53;4.40;;;2.90;;
49566;SDS011;35472;50.514;30.448;2024-01-10T01:04:19;5.53;;;3.38;;
49566;SDS011;35472;50.514;30.448;2024-01-10T01:06:44;4.07;;;2.63;;
49566;SDS011;35472;50.514;30.448;2024-01-10T01:09:09;4.80;;;3.35;;
49566;SDS011;35472;50.514;30.448;2024-01-10T01:11:35;6.20;;;3.38;;
49566;SDS011;35472;50.514;30.448;2024-01-10T01:14:00;5.75;;;3.65;;
49566;SDS011;35472;50.514;30.448;2024-01-10T01:16:25;4.88;;;2.83;;
49566;SDS011;35472;50.514;30.448;2024-01-10T01:18:51;4.60;;;2.70;;
49566;SDS011;35472;50.514;30.448;2024-01-10T01:21:16;4.65;;;3.00;;
49566;SDS011;35472;50.514;30.448;2024-01-10T01:23:41;6.82;;;2.75;;
49566;SDS011;35472;50.514;30.448;2024-01-10T01:26:07;3.65;;;2.83;;
49566;SDS011;35472;50.514;30.448;2024-01-10T01:28:32;3.80;;;3.35;;
49566;SDS011;35472;50.514;30.448;2024-01-10T01:30:57;4.47;;;3.10;;
49566;SDS011;35472;50.514;30.448;2024-01-10T01:33:23;3.85;;;2.45;;
49566;SDS011;35472;50.514;30.448;2024-01-10T01:35:50;4.82;;;3.55;;
49566;SDS011;35472;50.514;30.448;2024-01-10T01:38:15;3.80;;;2.25;;
49566;SDS011;35472;50.514;30.448;2024-01-10T01:40:41;3.67;;;2.47;;
49566;SDS011;35472;50.514;30.448;2024-01-10T01:43:24;6.38;;;2.80;;
49566;SDS011;35472;50.514;30.448;2024-01-10T01:48:17;4.40;;;2.35;;
49566;SDS011;35472;50.514;30.448;2024-01-10T01:50:44;4.72;;;3.55;;
49566;SDS011;35472;50.514;30.448;2024-01-10T01:53:10;3.83;;;2.35;;
49566;SDS011;35472;50.514;30.448;2024-01-10T01:55:36;4.93;;;2.30;;
49566;SDS011;35472;50.514;30.448;2024-01-10T01:58:02;4.47;;;2.47;;
49566;SDS011;35472;50.514;30.448;2024-01-10T02:00:29;2.72;;;2.38;;
49566;SDS011;35472;50.514;30.448;2024-01-10T02:02:56;6.03;;;3.15;;
49566;SDS011;35472;50.514;30.448;2024-01-10T02:05:23;5.63;;;2.72;;
49566;SDS011;35472;50.514;30.448;2024-01-10T02:07:50;3.35;;;2.22;;
49566;SDS011;35472;50.514;30.448;2024-01-10T02:10:15;3.25;;;2.35;;
49566;SDS011;35472;50.514;30.448;2024-01-10T02:12:41;4.55;;;1.98;;
49566;SDS011;35472;50.514;30.448;2024-01-10T02:15:08;5.15;;;2.78;;
49566;SDS011;35472;50.514;30.448;2024-01-10T02:17:34;13.68;;;2.55;;
49566;SDS011;35472;50.514;30.448;2024-01-10T02:20:10;5.88;;;2.78;;
49566;SDS011;35472;50.514;30.448;2024-01-10T02:22:37;4.00;;;2.38;;
49566;SDS011;35472;50.514;30.448;2024-01-10T02:25:07;4.53;;;2.42;;
49566;SDS011;35472;50.514;30.448;2024-01-10T02:27:35;4.82;;;2.30;;
49566;SDS011;35472;50.514;30.448;2024-01-10T02:30:02;5.70;;;3.10;;
49566;SDS011;35472;50.514;30.448;2024-01-10T02:32:28;4.13;;;2.15;;
49566;SDS011;35472;50.514;30.448;2024-01-10T02:34:54;7.40;;;3.30;;
49566;SDS011;35472;50.514;30.448;2024-01-10T02:37:19;4.38;;;3.88;;
49566;SDS011;35472;50.514;30.448;2024-01-10T02:39:44;5.60;;;3.00;;
49566;SDS011;35472;50.514;30.448;2024-01-10T02:42:10;3.67;;;2.53;;
49566;SDS011;35472;50.514;30.448;2024-01-10T02:44:35;5.13;;;2.78;;
49566;SDS011;35472;50.514;30.448;2024-01-10T02:47:00;4.47;;;3.33;;
49566;SDS011;35472;50.514;30.448;2024-01-10T02:49:26;4.13;;;2.72;;
49566;SDS011;35472;50.514;30.448;2024-01-10T02:51:51;4.25;;;2.60;;
49566;SDS011;35472;50.514;30.448;2024-01-10T02:54:16;6.30;;;2.90;;
49566;SDS011;35472;50.514;30.448;2024-01-10T02:56:41;5.45;;;3.22;;
49566;SDS011;35472;50.514;30.448;2024-01-10T02:59:07;8.45;;;4.03;;
49566;SDS011;35472;50.514;30.448;2024-01-10T03:01:32;5.05;;;3.33;;
49566;SDS011;35472;50.514;30.448;2024-01-10T03:03:57;5.18;;;2.50;;
49566;SDS011;35472;50.514;30.448;2024-01-10T03:06:23;4.13;;;2.45;;
49566;SDS011;35472;50.514;30.448;2024-01-10T03:08:48;5.10;;;2.55;;
49566;SDS011;35472;50.514;30.448;2024-01-10T03:11:15;5.28;;;2.63;;
49566;SDS011;35472;50.514;30.448;2024-01-10T03:13:42;4.32;;;2.83;;
49566;SDS011;35472;50.514;30.448;2024-01-10T03:16:09;4.53;;;2.95;;
49566;SDS011;35472;50.514;30.448;2024-01-10T03:18:34;6.20;;;3.28;;
49566;SDS011;35472;50.514;30.448;2024-01-10T03:20:59;4.07;;;3.03;;
49566;SDS011;35472;50.514;30.448;2024-01-10T03:23:25;5.10;;;3.10;;
49566;SDS011;35472;50.514;30.448;2024-01-10T03:25:52;5.95;;;3.65;;
49566;SDS011;35472;50.514;30.448;2024-01-10T03:28:17;6.75;;;3.42;;
49566;SDS011;35472;50.514;30.448;2024-01-10T03:30:43;5.30;;;3.20;;
49566;SDS011;35472;50.514;30.448;2024-01-10T03:33:08;4.60;;;2.78;;
49566;SDS011;35472;50.514;30.448;2024-01-10T03:35:33;4.75;;;2.60;;
49566;SDS011;35472;50.514;30.448;2024-01-10T03:37:59;4.03;;;3.28;;
49566;SDS011;35472;50.514;30.448;2024-01-10T03:40:24;6.55;;;3.72;;
49566;SDS011;35472;50.514;30.448;2024-01-10T03:42:49;5.70;;;3.92;;
49566;SDS011;35472;50.514;30.448;2024-01-10T03:45:16;2.95;;;2.22;;
49566;SDS011;35472;50.514;30.448;2024-01-10T03:47:46;5.35;;;3.28;;
49566;SDS011;35472;50.514;30.448;2024-01-10T03:50:15;6.30;;;3.17;;
49566;SDS011;35472;50.514;30.448;2024-01-10T03:52:42;7.00;;;3.33;;
49566;SDS011;35472;50.514;30.448;2024-01-10T03:55:08;7.68;;;3.53;;
49566;SDS011;35472;50.514;30.448;2024-01-10T03:57:34;4.43;;;2.58;;
49566;SDS011;35472;50.514;30.448;2024-01-10T03:59:59;5.38;;;3.08;;
49566;SDS011;35472;50.514;30.448;2024-01-10T04:02:24;4.13;;;3.08;;
49566;SDS011;35472;50.514;30.448;2024-01-10T04:04:50;4.47;;;2.80;;
49566;SDS011;35472;50.514;30.448;2024-01-10T04:07:15;4.32;;;2.80;;
49566;SDS011;35472;50.514;30.448;2024-01-10T04:09:40;3.97;;;2.28;;
49566;SDS011;35472;50.514;30.448;2024-01-10T04:12:07;5.47;;;3.50;;
49566;SDS011;35472;50.514;30.448;2024-01-10T04:14:32;4.80;;;2.88;;
49566;SDS011;35472;50.514;30.448;2024-01-10T04:16:58;5.60;;;3.40;;
49566;SDS011;35472;50.514;30.448;2024-01-10T04:19:23;6.65;;;3.17;;
49566;SDS011;35472;50.514;30.448;2024-01-10T04:21:49;6.82;;;4.07;;
49566;SDS011;35472;50.514;30.448;2024-01-10T04:24:14;4.75;;;3.15;;
49566;SDS011;35472;50.514;30.448;2024-01-10T04:26:40;5.45;;;2.83;;
49566;SDS011;35472;50.514;30.448;2024-01-10T04:29:05;4.63;;;3.15;;
49566;SDS011;35472;50.514;30.448;2024-01-10T04:31:31;8.55;;;4.65;;
49566;SDS011;35472;50.514;30.448;2024-01-10T04:33:56;4.75;;;3.55;;
49566;SDS011;35472;50.514;30.448;2024-01-10T04:36:22;6.82;;;3.80;;
49566;SDS011;35472;50.514;30.448;2024-01-10T04:38:49;5.32;;;2.63;;
49566;SDS011;35472;50.514;30.448;2024-01-10T04:41:14;4.93;;;3.20;;
49566;SDS011;35472;50.514;30.448;2024-01-10T04:43:40;3.90;;;3.20;;
49566;SDS011;35472;50.514;30.448;2024-01-10T04:46:05;6.88;;;2.95;;
49566;SDS011;35472;50.514;30.448;2024-01-10T04:48:31;7.18;;;3.20;;
49566;SDS011;35472;50.514;30.448;2024-01-10T04:50:56;8.27;;;3.92;;
49566;SDS011;35472;50.514;30.448;2024-01-10T04:53:21;5.47;;;3.35;;
49566;SDS011;35472;50.514;30.448;2024-01-10T04:55:49;8.10;;;3.97;;
49566;SDS011;35472;50.514;30.448;2024-01-10T04:58:15;6.38;;;4.43;;
49566;SDS011;35472;50.514;30.448;2024-01-10T05:00:40;5.38;;;3.42;;
49566;SDS011;35472;50.514;30.448;2024-01-10T05:03:05;7.15;;;4.25;;
49566;SDS011;35472;50.514;30.448;2024-01-10T05:05:31;5.13;;;3.53;;
49566;SDS011;35472;50.514;30.448;2024-01-10T05:07:56;5.82;;;3.25;;
49566;SDS011;35472;50.514;30.448;2024-01-10T05:10:22;8.57;;;3.22;;
49566;SDS011;35472;50.514;30.448;2024-01-10T05:12:47;5.72;;;3.75;;
49566;SDS011;35472;50.514;30.448;2024-01-10T05:15:13;5.15;;;3.88;;
49566;SDS011;35472;50.514;30.448;2024-01-10T05:17:38;9.75;;;5.20;;
49566;SDS011;35472;50.514;30.448;2024-01-10T05:20:04;7.60;;;4.07;;
49566;SDS011;35472;50.514;30.448;2024-01-10T05:22:30;4.60;;;3.92;;
49566;SDS011;35472;50.514;30.448;2024-01-10T05:24:56;7.15;;;4.15;;
49566;SDS011;35472;50.514;30.448;2024-01-10T05:27:21;6.57;;;4.15;;
49566;SDS011;35472;50.514;30.448;2024-01-10T05:29:46;5.55;;;3.90;;
49566;SDS011;35472;50.514;30.448;2024-01-10T05:32:12;8.77;;;3.83;;
49566;SDS011;35472;50.514;30.448;2024-01-10T05:34:37;7.05;;;4.05;;
49566;SDS011;35472;50.514;30.448;2024-01-10T05:37:03;4.90;;;3.33;;
49566;SDS011;35472;50.514;30.448;2024-01-10T05:39:28;7.88;;;3.40;;
49566;SDS011;35472;50.514;30.448;2024-01-10T05:41:53;5.88;;;3.50;;
49566;SDS011;35472;50.514;30.448;2024-01-10T05:44:19;6.05;;;4.20;;
49566;SDS011;35472;50.514;30.448;2024-01-10T05:46:44;6.20;;;3.92;;
49566;SDS011;35472;50.514;30.448;2024-01-10T05:49:09;5.05;;;3.35;;
49566;SDS011;35472;50.514;30.448;2024-01-10T05:51:35;5.95;;;3.83;;
49566;SDS011;35472;50.514;30.448;2024-01-10T05:54:06;7.15;;;4.38;;
49566;SDS011;35472;50.514;30.448;2024-01-10T05:56:32;10.35;;;4.43;;
49566;SDS011;35472;50.514;30.448;2024-01-10T05:58:57;7.05;;;4.25;;
49566;SDS011;35472;50.514;30.448;2024-01-10T06:01:23;6.90;;;4.15;;
49566;SDS011;35472;50.514;30.448;2024-01-10T06:03:48;8.38;;;4.15;;
49566;SDS011;35472;50.514;30.448;2024-01-10T06:06:13;9.60;;;4.40;;
49566;SDS011;35472;50.514;30.448;2024-01-10T06:08:39;8.35;;;5.07;;
49566;SDS011;35472;50.514;30.448;2024-01-10T06:11:05;7.05;;;4.03;;
49566;SDS011;35472;50.514;30.448;2024-01-10T06:13:34;4.88;;;3.25;;
49566;SDS011;35472;50.514;30.448;2024-01-10T06:15:59;8.85;;;5.13;;
49566;SDS011;35472;50.514;30.448;2024-01-10T06:18:25;7.15;;;4.57;;
49566;SDS011;35472;50.514;30.448;2024-01-10T06:20:50;6.78;;;3.90;;
49566;SDS011;35472;50.514;30.448;2024-01-10T06:23:18;9.52;;;4.63;;
49566;SDS011;35472;50.514;30.448;2024-01-10T06:25:43;7.53;;;3.90;;
49566;SDS011;35472;50.514;30.448;2024-01-10T06:28:08;17.75;;;8.50;;
49566;SDS011;35472;50.514;30.448;2024-01-10T06:30:33;11.50;;;5.15;;
49566;SDS011;35472;50.514;30.448;2024-01-10T06:33:00;19.25;;;9.07;;
49566;SDS011;35472;50.514;30.448;2024-01-10T06:35:26;22.77;;;9.60;;
49566;SDS011;35472;50.514;30.448;2024-01-10T06:37:51;44.80;;;20.65;;
49566;SDS011;35472;50.514;30.448;2024-01-10T06:40:16;15.68;;;7.72;;
49566;SDS011;35472;50.514;30.448;2024-01-10T06:42:42;11.80;;;6.70;;
49566;SDS011;35472;50.514;30.448;2024-01-10T06:48:49;13.27;;;6.70;;
49566;SDS011;35472;50.514;30.448;2024-01-10T06:51:16;12.95;;;7.47;;
49566;SDS011;35472;50.514;30.448;2024-01-10T06:53:44;17.10;;;8.02;;
49566;SDS011;35472;50.514;30.448;2024-01-10T06:56:10;19.00;;;8.52;;
49566;SDS011;35472;50.514;30.448;2024-01-10T06:58:35;10.82;;;6.18;;
49566;SDS011;35472;50.514;30.448;2024-01-10T07:01:00;13.68;;;7.22;;
49566;SDS011;35472;50.514;30.448;2024-01-10T07:03:26;13.48;;;6.30;;
49566;SDS011;35472;50.514;30.448;2024-01-10T07:05:52;20.60;;;9.52;;
49566;SDS011;35472;50.514;30.448;2024-01-10T07:08:17;11.10;;;5.50;;
49566;SDS011;35472;50.514;30.448;2024-01-10T07:10:44;9.43;;;5.63;;
49566;SDS011;35472;50.514;30.448;2024-01-10T07:13:10;10.02;;;6.28;;
49566;SDS011;35472;50.514;30.448;2024-01-10T07:15:36;10.05;;;5.45;;
49566;SDS011;35472;50.514;30.448;2024-01-10T07:18:02;11.70;;;5.95;;
49566;SDS011;35472;50.514;30.448;2024-01-10T07:20:27;13.23;;;5.63;;
49566;SDS011;35472;50.514;30.448;2024-01-10T07:22:52;13.85;;;5.38;;
49566;SDS011;35472;50.514;30.448;2024-01-10T07:25:18;10.68;;;6.20;;
49566;SDS011;35472;50.514;30.448;2024-01-10T07:27:43;12.93;;;6.63;;
49566;SDS011;35472;50.514;30.448;2024-01-10T07:30:09;13.93;;;8.35;;
49566;SDS011;35472;50.514;30.448;2024-01-10T07:32:41;10.07;;;7.15;;
49566;SDS011;35472;50.514;30.448;2024-01-10T07:35:16;12.55;;;6.18;;
49566;SDS011;35472;50.514;30.448;2024-01-10T07:37:41;10.52;;;6.20;;
49566;SDS011;35472;50.514;30.448;2024-01-10T07:40:07;13.15;;;6.80;;
49566;SDS011;35472;50.514;30.448;2024-01-10T07:42:34;10.30;;;7.25;;
49566;SDS011;35472;50.514;30.448;2024-01-10T07:45:00;14.68;;;8.52;;
49566;SDS011;35472;50.514;30.448;2024-01-10T07:47:31;13.90;;;7.28;;
49566;SDS011;35472;50.514;30.448;2024-01-10T07:49:59;15.15;;;7.93;;
49566;SDS011;35472;50.514;30.448;2024-01-10T07:52:26;14.50;;;7.55;;
49566;SDS011;35472;50.514;30.448;2024-01-10T07:54:52;12.13;;;6.82;;
49566;SDS011;35472;50.514;30.448;2024-01-10T07:57:17;14.93;;;6.75;;
49566;SDS011;35472;50.514;30.448;2024-01-10T07:59:47;18.65;;;8.35;;
49566;SDS011;35472;50.514;30.448;2024-01-10T08:02:12;11.70;;;7.47;;
49566;SDS011;35472;50.514;30.448;2024-01-10T08:04:37;14.65;;;9.10;;
49566;SDS011;35472;50.514;30.448;2024-01-10T08:07:03;13.60;;;7.28;;
49566;SDS011;35472;50.514;30.448;2024-01-10T08:09:28;13.85;;;8.23;;
49566;SDS011;35472;50.514;30.448;2024-01-10T08:11:56;14.50;;;7.63;;
49566;SDS011;35472;50.514;30.448;2024-01-10T08:14:22;13.25;;;7.22;;
49566;SDS011;35472;50.514;30.448;2024-01-10T08:16:47;10.77;;;7.25;;
49566;SDS011;35472;50.514;30.448;2024-01-10T08:19:13;12.18;;;6.97;;
49566;SDS011;35472;50.514;30.448;2024-01-10T08:21:38;13.73;;;7.38;;
49566;SDS011;35472;50.514;30.448;2024-01-10T08:24:04;16.55;;;8.75;;
49566;SDS011;35472;50.514;30.448;2024-01-10T08:26:30;17.77;;;8.02;;
49566;SDS011;35472;50.514;30.448;2024-01-10T08:28:56;11.75;;;6.38;;
49566;SDS011;35472;50.514;30.448;2024-01-10T08:31:21;17.83;;;8.85;;
49566;SDS011;35472;50.514;30.448;2024-01-10T08:33:47;15.18;;;8.52;;
49566;SDS011;35472;50.514;30.448;2024-01-10T08:36:13;13.57;;;7.95;;
49566;SDS011;35472;50.514;30.448;2024-01-10T08:38:39;16.15;;;8.43;;
49566;SDS011;35472;50.514;30.448;2024-01-10T08:41:07;15.95;;;8.57;;
49566;SDS011;35472;50.514;30.448;2024-01-10T08:43:35;12.95;;;8.15;;
49566;SDS011;35472;50.514;30.448;2024-01-10T08:46:01;13.20;;;8.93;;
49566;SDS011;35472;50.514;30.448;2024-01-10T08:48:26;15.95;;;9.65;;
49566;SDS011;35472;50.514;30.448;2024-01-10T08:50:51;14.57;;;7.95;;
49566;SDS011;35472;50.514;30.448;2024-01-10T08:53:19;15.38;;;8.50;;
49566;SDS011;35472;50.514;30.448;2024-01-10T08:55:45;15.55;;;8.65;;
49566;SDS011;35472;50.514;30.448;2024-01-10T08:58:12;16.63;;;9.75;;
49566;SDS011;35472;50.514;30.448;2024-01-10T09:00:37;21.30;;;9.07;;
49566;SDS011;35472;50.514;30.448;2024-01-10T09:03:06;18.55;;;8.45;;
49566;SDS011;35472;50.514;30.448;2024-01-10T09:05:32;16.58;;;8.98;;
49566;SDS011;35472;50.514;30.448;2024-01-10T09:07:58;21.45;;;10.18;;
49566;SDS011;35472;50.514;30.448;2024-01-10T09:10:23;18.35;;;8.18;;
49566;SDS011;35472;50.514;30.448;2024-01-10T09:12:49;15.45;;;8.57;;
49566;SDS011;35472;50.514;30.448;2024-01-10T09:15:14;14.75;;;9.35;;
49566;SDS011;35472;50.514;30.448;2024-01-10T09:17:43;14.25;;;8.60;;
49566;SDS011;35472;50.514;30.448;2024-01-10T09:20:12;15.48;;;9.13;;
49566;SDS011;35472;50.514;30.448;2024-01-10T09:22:40;14.45;;;8.43;;
49566;SDS011;35472;50.514;30.448;2024-01-10T09:25:06;17.95;;;8.55;;
49566;SDS011;35472;50.514;30.448;2024-01-10T09:27:32;20.92;;;10.88;;
49566;SDS011;35472;50.514;30.448;2024-01-10T09:30:01;18.48;;;10.25;;
49566;SDS011;35472;50.514;30.448;2024-01-10T09:32:27;16.42;;;8.77;;
49566;SDS011;35472;50.514;30.448;2024-01-10T09:34:54;16.35;;;8.95;;
49566;SDS011;35472;50.514;30.448;2024-01-10T09:37:23;17.27;;;9.65;;
49566;SDS011;35472;50.514;30.448;2024-01-10T09:39:49;15.80;;;9.55;;
49566;SDS011;35472;50.514;30.448;2024-01-10T09:42:14;15.85;;;8.32;;
49566;SDS011;35472;50.514;30.448;2024-01-10T09:44:40;14.63;;;9.43;;
49566;SDS011;35472;50.514;30.448;2024-01-10T09:47:06;16.23;;;9.27;;
49566;SDS011;35472;50.514;30.448;2024-01-10T09:49:32;18.33;;;9.23;;
49566;SDS011;35472;50.514;30.448;2024-01-10T09:51:59;12.82;;;8.48;;
49566;SDS011;35472;50.514;30.448;2024-01-10T09:54:25;14.02;;;8.63;;
49566;SDS011;35472;50.514;30.448;2024-01-10T09:56:54;16.25;;;9.30;;
49566;SDS011;35472;50.514;30.448;2024-01-10T09:59:20;18.70;;;10.57;;
49566;SDS011;35472;50.514;30.448;2024-01-10T10:01:46;16.85;;;9.60;;
49566;SDS011;35472;50.514;30.448;2024-01-10T10:04:12;18.20;;;10.40;;
49566;SDS011;35472;50.514;30.448;2024-01-10T10:06:38;16.17;;;9.18;;
49566;SDS011;35472;50.514;30.448;2024-01-10T10:09:03;17.98;;;9.93;;
49566;SDS011;35472;50.514;30.448;2024-01-10T10:11:32;17.52;;;9.20;;
49566;SDS011;35472;50.514;30.448;2024-01-10T10:14:01;17.00;;;9.68;;
49566;SDS011;35472;50.514;30.448;2024-01-10T10:16:39;14.13;;;8.25;;
49566;SDS011;35472;50.514;30.448;2024-01-10T10:19:06;16.35;;;9.00;;
49566;SDS011;35472;50.514;30.448;2024-01-10T10:21:33;13.70;;;8.32;;
49566;SDS011;35472;50.514;30.448;2024-01-10T10:24:02;15.05;;;9.48;;
49566;SDS011;35472;50.514;30.448;2024-01-10T10:26:34;15.75;;;10.23;;
49566;SDS011;35472;50.514;30.448;2024-01-10T10:28:59;16.85;;;10.85;;
49566;SDS011;35472;50.514;30.448;2024-01-10T10:31:25;15.90;;;8.43;;
49566;SDS011;35472;50.514;30.448;2024-01-10T10:33:51;15.70;;;9.43;;
49566;SDS011;35472;50.514;30.448;2024-01-10T10:36:17;16.42;;;10.52;;
49566;SDS011;35472;50.514;30.448;2024-01-10T10:38:46;14.88;;;10.35;;
49566;SDS011;35472;50.514;30.448;2024-01-10T10:41:12;16.15;;;9.15;;
49566;SDS011;35472;50.514;30.448;2024-01-10T10:43:39;20.42;;;9.63;;
49566;SDS011;35472;50.514;30.448;2024-01-10T10:46:05;15.40;;;9.98;;
49566;SDS011;35472;50.514;30.448;2024-01-10T10:48:35;18.77;;;10.77;;
49566;SDS011;35472;50.514;30.448;2024-01-10T10:51:04;18.52;;;10.13;;
49566;SDS011;35472;50.514;30.448;2024-01-10T10:53:37;17.35;;;9.25;;
49566;SDS011;35472;50.514;30.448;2024-01-10T10:56:04;18.10;;;9.93;;
49566;SDS011;35472;50.514;30.448;2024-01-10T10:58:49;15.27;;;9.13;;
49566;SDS011;35472;50.514;30.448;2024-01-10T11:01:15;16.05;;;10.30;;
49566;SDS011;35472;50.514;30.448;2024-01-10T11:03:41;23.05;;;11.73;;
49566;SDS011;35472;50.514;30.448;2024-01-10T11:06:09;18.52;;;11.10;;
49566;SDS011;35472;50.514;30.448;2024-01-10T11:08:35;20.58;;;10.98;;
49566;SDS011;35472;50.514;30.448;2024-01-10T11:11:04;24.80;;;10.88;;
49566;SDS011;35472;50.514;30.448;2024-01-10T11:13:41;16.67;;;9.85;;
49566;SDS011;35472;50.514;30.448;2024-01-10T11:22:10;19.23;;;10.55;;
49566;SDS011;35472;50.514;30.448;2024-01-10T11:25:17;20.58;;;10.77;;
49566;SDS011;35472;50.514;30.448;2024-01-10T11:27:44;18.98;;;10.60;;
49566;SDS011;35472;50.514;30.448;2024-01-10T11:30:10;17.02;;;9.55;;
49566;SDS011;35472;50.514;30.448;2024-01-10T11:32:37;20.23;;;10.70;;
49566;SDS011;35472;50.514;30.448;2024-01-10T11:35:19;20.83;;;10.88;;
49566;SDS011;35472;50.514;30.448;2024-01-10T11:37:49;19.73;;;10.50;;
49566;SDS011;35472;50.514;30.448;2024-01-10T11:40:16;19.52;;;10.18;;
49566;SDS011;35472;50.514;30.448;2024-01-10T11:45:50;17.20;;;9.57;;
49566;SDS011;35472;50.514;30.448;2024-01-10T11:48:17;19.08;;;9.75;;
49566;SDS011;35472;50.514;30.448;2024-01-10T11:50:52;18.45;;;9.98;;
49566;SDS011;35472;50.514;30.448;2024-01-10T11:53:37;22.13;;;9.82;;
49566;SDS011;35472;50.514;30.448;2024-01-10T11:56:11;15.68;;;10.07;;
49566;SDS011;35472;50.514;30.448;2024-01-10T11:58:56;20.20;;;9.80;;
49566;SDS011;35472;50.514;30.448;2024-01-10T12:01:33;18.63;;;10.70;;
49566;SDS011;35472;50.514;30.448;2024-01-10T12:03:58;18.05;;;10.52;;
49566;SDS011;35472;50.514;30.448;2024-01-10T12:06:25;18.77;;;10.50;;
49566;SDS011;35472;50.514;30.448;2024-01-10T12:08:51;19.10;;;10.75;;
49566;SDS011;35472;50.514;30.448;2024-01-10T12:11:16;21.67;;;11.15;;
49566;SDS011;35472;50.514;30.448;2024-01-10T12:13:42;17.90;;;10.57;;
49566;SDS011;35472;50.514;30.448;2024-01-10T12:16:08;20.13;;;11.18;;
49566;SDS011;35472;50.514;30.448;2024-01-10T12:18:33;21.00;;;11.75;;
49566;SDS011;35472;50.514;30.448;2024-01-10T12:21:01;18.00;;;10.52;;
49566;SDS011;35472;50.514;30.448;2024-01-10T12:23:29;19.33;;;9.75;;
49566;SDS011;35472;50.514;30.448;2024-01-10T12:25:57;16.48;;;9.23;;
49566;SDS011;35472;50.514;30.448;2024-01-10T12:28:26;16.20;;;9.85;;
49566;SDS011;35472;50.514;30.448;2024-01-10T12:30:51;19.15;;;9.68;;
49566;SDS011;35472;50.514;30.448;2024-01-10T12:33:23;16.20;;;9.00;;
49566;SDS011;35472;50.514;30.448;2024-01-10T12:36:03;13.77;;;8.85;;
49566;SDS011;35472;50.514;30.448;2024-01-10T12:38:34;11.80;;;8.43;;
49566;SDS011;35472;50.514;30.448;2024-01-10T12:41:01;14.68;;;9.05;;
49566;SDS011;35472;50.514;30.448;2024-01-10T12:43:27;16.48;;;8.52;;
49566;SDS011;35472;50.514;30.448;2024-01-10T12:46:08;13.98;;;8.48;;
49566;SDS011;35472;50.514;30.448;2024-01-10T12:48:37;15.90;;;9.55;;
49566;SDS011;35472;50.514;30.448;2024-01-10T12:51:08;18.85;;;9.90;;
49566;SDS011;35472;50.514;30.448;2024-01-10T12:53:41;17.73;;;9.65;;
49566;SDS011;35472;50.514;30.448;2024-01-10T12:56:07;18.02;;;9.77;;
49566;SDS011;35472;50.514;30.448;2024-01-10T12:58:34;18.92;;;10.40;;
49566;SDS011;35472;50.514;30.448;2024-01-10T13:01:02;16.63;;;9.63;;
49566;SDS011;35472;50.514;30.448;2024-01-10T13:03:28;17.25;;;9.57;;
49566;SDS011;35472;50.514;30.448;2024-01-10T13:05:54;18.95;;;9.82;;
49566;SDS011;35472;50.514;30.448;2024-01-10T13:08:20;14.15;;;8.48;;
49566;SDS011;35472;50.514;30.448;2024-01-10T13:10:45;18.58;;;10.18;;
49566;SDS011;35472;50.514;30.448;2024-01-10T13:13:12;16.25;;;10.52;;
49566;SDS011;35472;50.514;30.448;2024-01-10T13:15:38;15.13;;;10.23;;
49566;SDS011;35472;50.514;30.448;2024-01-10T13:18:03;19.70;;;11.48;;
49566;SDS011;35472;50.514;30.448;2024-01-10T13:20:29;17.00;;;9.43;;
49566;SDS011;35472;50.514;30.448;2024-01-10T13:22:54;16.98;;;10.18;;
49566;SDS011;35472;50.514;30.448;2024-01-10T13:25:20;22.42;;;11.55;;
49566;SDS011;35472;50.514;30.448;2024-01-10T13:27:51;20.17;;;10.15;;
49566;SDS011;35472;50.514;30.448;2024-01-10T13:30:17;20.63;;;10.82;;
49566;SDS011;35472;50.514;30.448;2024-01-10T13:32:43;18.65;;;10.48;;
49566;SDS011;35472;50.514;30.448;2024-01-10T13:35:09;14.57;;;10.43;;
49566;SDS011;35472;50.514;30.448;2024-01-10T13:37:34;17.77;;;9.77;;
49566;SDS011;35472;50.514;30.448;2024-01-10T13:40:00;17.90;;;10.93;;
49566;SDS011;35472;50.514;30.448;2024-01-10T13:42:25;19.75;;;11.52;;
49566;SDS011;35472;50.514;30.448;2024-01-10T13:44:50;16.30;;;9.63;;
49566;SDS011;35472;50.514;30.448;2024-01-10T13:47:20;16.17;;;9.02;;
49566;SDS011;35472;50.514;30.448;2024-01-10T13:49:48;16.25;;;9.80;;
49566;SDS011;35472;50.514;30.448;2024-01-10T13:52:14;22.85;;;10.63;;
49566;SDS011;35472;50.514;30.448;2024-01-10T13:54:39;14.88;;;9.02;;
49566;SDS011;35472;50.514;30.448;2024-01-10T13:57:04;17.23;;;10.18;;
49566;SDS011;35472;50.514;30.448;2024-01-10T13:59:30;20.23;;;10.63;;
49566;SDS011;35472;50.514;30.448;2024-01-10T14:01:57;17.10;;;10.50;;
49566;SDS011;35472;50.514;30.448;2024-01-10T14:04:24;17.83;;;10.73;;
49566;SDS011;35472;50.514;30.448;2024-01-10T14:06:49;18.33;;;11.13;;
49566;SDS011;35472;50.514;30.448;2024-01-10T14:09:15;16.85;;;9.48;;
49566;SDS011;35472;50.514;30.448;2024-01-10T14:11:46;21.33;;;11.40;;
49566;SDS011;35472;50.514;30.448;2024-01-10T14:14:15;18.05;;;11.05;;
49566;SDS011;35472;50.514;30.448;2024-01-10T14:16:45;19.30;;;10.38;;
49566;SDS011;35472;50.514;30.448;2024-01-10T14:19:11;20.90;;;11.60;;
49566;SDS011;35472;50.514;30.448;2024-01-10T14:21:36;21.20;;;11.27;;
49566;SDS011;35472;50.514;30.448;2024-01-10T14:24:01;21.80;;;11.77;;
49566;SDS011;35472;50.514;30.448;2024-01-10T14:26:27;20.00;;;9.38;;
49566;SDS011;35472;50.514;30.448;2024-01-10T14:28:52;22.92;;;12.15;;
49566;SDS011;35472;50.514;30.448;2024-01-10T14:31:20;22.30;;;12.55;;
49566;SDS011;35472;50.514;30.448;2024-01-10T14:33:46;20.27;;;12.18;;
49566;SDS011;35472;50.514;30.448;2024-01-10T14:36:11;29.67;;;13.73;;
49566;SDS011;35472;50.514;30.448;2024-01-10T14:38:38;22.23;;;12.13;;